Time;durP1;ratioP1;P1;durP2;ratioP2;P2;SDS_P1;SDS_P2;PMS_P1;PMS_P2;Temp;Humidity;BMP_temperature;BMP_pressure;BME280_temperature;BME280_humidity;BME280_pressure;Samples;Min_cycle;Max_cycle;Signal;HPM_P1;HPM_P2
2023/07/11 00:01:09;;;;;;;6.03;3.83;;;25.90;50.30;;;;;;5016024;28;20197;-81
2023/07/11 00:03:36;;;;;;;5.70;3.55;;;25.90;50.30;;;;;;5018204;28;20558;-81
2023/07/11 00:06:07;;;;;;;3.80;3.10;;;25.90;50.30;;;;;;5017713;28;20286;-81
2023/07/11 00:08:36;;;;;;;3.65;3.35;;;25.90;50.30;;;;;;5017691;28;20591;-81
2023/07/11 00:11:04;;;;;;;3.80;3.40;;;25.90;50.30;;;;;;5017327;28;20232;-81
2023/07/11 00:13:32;;;;;;;4.53;3.50;;;25.90;50.30;;;;;;5017149;28;20200;-81
2023/07/11 00:16:00;;;;;;;3.15;2.85;;;25.90;50.30;;;;;;5016105;28;20196;-81
2023/07/11 00:18:28;;;;;;;4.82;3.35;;;25.90;50.30;;;;;;5000120;28;20234;-81
2023/07/11 00:20:55;;;;;;;3.42;2.90;;;25.80;50.30;;;;;;5015948;28;20288;-80
2023/07/11 00:23:24;;;;;;;4.35;3.95;;;25.80;50.30;;;;;;5016043;28;20227;-80
2023/07/11 00:25:51;;;;;;;3.60;3.25;;;25.80;50.30;;;;;;5015398;28;20582;-80
2023/07/11 00:28:18;;;;;;;3.47;3.17;;;25.80;50.30;;;;;;5015341;28;20204;-80
2023/07/11 00:30:45;;;;;;;4.05;3.50;;;25.80;50.30;;;;;;5015303;28;20227;-80
2023/07/11 00:33:12;;;;;;;3.70;3.38;;;25.80;50.30;;;;;;5014936;28;20660;-80
2023/07/11 00:35:39;;;;;;;3.60;3.30;;;25.70;50.30;;;;;;4998306;28;20193;-80
2023/07/11 00:38:07;;;;;;;3.65;3.25;;;25.70;50.20;;;;;;5015408;28;20197;-80
2023/07/11 00:40:41;;;;;;;3.90;3.55;;;25.70;50.30;;;;;;5015279;28;20200;-80
2023/07/11 00:43:11;;;;;;;4.05;3.35;;;25.70;50.30;;;;;;5014316;28;20199;-80
2023/07/11 00:46:02;;;;;;;3.55;3.17;;;25.70;50.30;;;;;;5014246;28;20264;-80
2023/07/11 00:48:30;;;;;;;3.42;3.15;;;25.70;50.50;;;;;;5014297;28;20212;-80
2023/07/11 00:50:57;;;;;;;4.13;3.30;;;25.60;50.30;;;;;;5014863;28;20204;-80
2023/07/11 00:53:24;;;;;;;3.85;3.47;;;25.70;50.40;;;;;;5013942;28;20201;-80
2023/07/11 00:55:53;;;;;;;4.38;3.67;;;25.60;50.40;;;;;;5014024;28;20197;-81
2023/07/11 00:58:22;;;;;;;3.72;3.28;;;25.60;50.40;;;;;;4997909;28;20680;-81
2023/07/11 01:00:49;;;;;;;3.70;3.40;;;25.60;50.40;;;;;;5013765;28;20200;-81
2023/07/11 01:03:17;;;;;;;3.78;3.45;;;25.60;50.40;;;;;;4997992;28;20192;-80
2023/07/11 01:05:45;;;;;;;3.53;3.22;;;25.60;50.40;;;;;;5017996;28;20220;-80
2023/07/11 01:08:12;;;;;;;4.20;3.60;;;25.60;50.50;;;;;;5021049;28;20204;-80
2023/07/11 01:10:39;;;;;;;3.40;3.10;;;25.60;50.40;;;;;;5018457;28;20250;-80
2023/07/11 01:13:09;;;;;;;3.42;3.13;;;25.60;50.50;;;;;;5013980;28;20201;-80
2023/07/11 01:15:36;;;;;;;4.97;3.45;;;25.50;50.40;;;;;;5013512;28;20197;-80
2023/07/11 01:18:03;;;;;;;3.47;3.17;;;25.60;50.50;;;;;;5013434;28;20207;-80
2023/07/11 01:20:30;;;;;;;3.40;3.10;;;25.50;50.50;;;;;;5013348;28;20216;-80
2023/07/11 01:22:59;;;;;;;3.50;3.20;;;25.50;50.40;;;;;;5013426;28;20200;-80
2023/07/11 01:25:26;;;;;;;4.07;3.60;;;25.50;50.60;;;;;;5014387;28;20208;-81
2023/07/11 01:27:53;;;;;;;3.70;3.40;;;25.50;50.50;;;;;;5012539;28;20219;-81
2023/07/11 01:30:21;;;;;;;3.58;3.28;;;25.50;50.40;;;;;;5013210;28;20227;-81
2023/07/11 01:32:48;;;;;;;4.15;3.75;;;25.40;51.00;;;;;;5013610;28;20208;-81
2023/07/11 01:35:18;;;;;;;3.78;3.47;;;25.40;50.50;;;;;;5013287;28;20207;-81
2023/07/11 01:37:45;;;;;;;3.45;3.15;;;25.40;50.50;;;;;;5014336;28;20193;-81
2023/07/11 01:40:14;;;;;;;3.72;3.42;;;25.40;50.50;;;;;;5013051;28;20228;-81
2023/07/11 01:42:41;;;;;;;3.75;3.35;;;25.40;50.50;;;;;;5014027;28;20188;-81
2023/07/11 01:45:09;;;;;;;3.65;3.35;;;25.40;50.50;;;;;;5015650;28;20207;-81
2023/07/11 01:47:36;;;;;;;4.00;3.60;;;25.40;50.70;;;;;;5014284;28;20674;-81
2023/07/11 01:50:03;;;;;;;3.85;3.55;;;25.30;50.40;;;;;;5013689;28;20220;-81
2023/07/11 01:52:30;;;;;;;3.55;3.25;;;25.40;50.50;;;;;;5012991;28;20726;-81
2023/07/11 01:54:59;;;;;;;4.22;3.83;;;25.30;50.50;;;;;;4997093;28;20561;-81
2023/07/11 01:57:27;;;;;;;3.95;3.25;;;25.30;50.50;;;;;;5014031;28;20200;-81
2023/07/11 01:59:54;;;;;;;3.47;3.03;;;25.30;50.50;;;;;;5012980;28;20235;-81
2023/07/11 02:02:21;;;;;;;3.88;3.47;;;25.30;50.40;;;;;;5013160;28;20224;-81
2023/07/11 02:04:48;;;;;;;4.30;3.70;;;25.30;50.40;;;;;;5012976;28;20643;-81
2023/07/11 02:07:15;;;;;;;3.90;3.50;;;25.30;50.40;;;;;;5013027;28;20283;-81
2023/07/11 02:09:46;;;;;;;3.40;3.10;;;25.30;50.40;;;;;;4997377;28;20307;-81
2023/07/11 02:12:14;;;;;;;4.00;3.60;;;25.30;50.50;;;;;;5013288;28;20203;-81
2023/07/11 02:14:42;;;;;;;3.60;3.30;;;25.30;50.40;;;;;;5012975;28;20197;-81
2023/07/11 02:17:09;;;;;;;4.05;3.65;;;25.20;50.50;;;;;;5012976;28;20200;-81
2023/07/11 02:19:36;;;;;;;3.88;3.42;;;25.20;50.50;;;;;;5012951;28;20217;-81
2023/07/11 02:22:04;;;;;;;4.40;3.40;;;25.20;50.50;;;;;;5013222;28;20246;-81
2023/07/11 02:24:31;;;;;;;4.47;3.97;;;25.20;50.60;;;;;;5013050;28;20200;-81
2023/07/11 02:26:58;;;;;;;4.38;3.97;;;25.20;50.70;;;;;;5012930;28;20216;-81
2023/07/11 02:29:25;;;;;;;4.50;3.63;;;25.20;50.60;;;;;;4996765;28;20236;-81
2023/07/11 02:31:54;;;;;;;4.40;3.83;;;25.20;50.50;;;;;;5013064;28;20578;-81
2023/07/11 02:34:21;;;;;;;4.90;3.90;;;25.20;50.60;;;;;;5013081;28;20200;-81
2023/07/11 02:36:47;;;;;;;4.45;4.05;;;25.20;50.50;;;;;;5012856;28;20196;-81
2023/07/11 02:39:15;;;;;;;5.65;3.95;;;25.10;50.40;;;;;;5014481;28;20221;-81
2023/07/11 02:41:41;;;;;;;3.90;3.50;;;25.10;50.50;;;;;;5000360;28;20197;-81
2023/07/11 02:44:09;;;;;;;4.10;3.72;;;25.10;50.50;;;;;;5016701;28;20572;-81
2023/07/11 02:46:36;;;;;;;4.63;4.22;;;25.10;50.60;;;;;;5016368;28;20683;-81
2023/07/11 02:49:08;;;;;;;4.78;4.28;;;25.10;50.40;;;;;;5017872;28;20215;-81
2023/07/11 02:51:35;;;;;;;4.72;4.15;;;25.10;50.70;;;;;;5016184;28;20275;-81
2023/07/11 02:54:03;;;;;;;4.18;3.80;;;25.10;50.60;;;;;;5016535;28;20292;-81
2023/07/11 02:56:29;;;;;;;4.80;4.13;;;25.10;51.20;;;;;;5016393;28;20255;-81
2023/07/11 02:59:00;;;;;;;4.68;3.80;;;25.10;50.70;;;;;;5016219;28;20221;-81
2023/07/11 03:01:27;;;;;;;4.40;4.00;;;25.10;50.80;;;;;;5016381;28;20193;-81
2023/07/11 03:03:54;;;;;;;4.40;4.00;;;25.10;50.60;;;;;;5016265;28;20235;-81
2023/07/11 03:06:22;;;;;;;4.20;3.80;;;25.00;50.40;;;;;;5016284;28;20245;-81
2023/07/11 03:08:50;;;;;;;4.45;3.80;;;25.00;50.50;;;;;;5017031;28;20578;-81
2023/07/11 03:11:17;;;;;;;4.88;4.38;;;25.00;50.60;;;;;;5015960;28;20200;-81
2023/07/11 03:13:44;;;;;;;4.07;3.63;;;25.00;50.50;;;;;;5016090;28;20200;-81
2023/07/11 03:16:11;;;;;;;4.57;4.07;;;25.00;50.70;;;;;;5016075;28;20224;-81
2023/07/11 03:18:38;;;;;;;4.80;3.90;;;25.00;50.70;;;;;;5015854;28;20231;-81
2023/07/11 03:21:05;;;;;;;4.40;4.00;;;25.00;50.60;;;;;;5015674;28;20593;-81
2023/07/11 03:23:33;;;;;;;4.40;4.00;;;25.00;50.70;;;;;;5015831;28;20207;-81
2023/07/11 03:26:00;;;;;;;4.10;3.70;;;25.10;50.80;;;;;;5015857;28;20205;-81
2023/07/11 03:28:28;;;;;;;4.53;3.70;;;25.10;50.80;;;;;;5015498;28;20228;-82
2023/07/11 03:30:54;;;;;;;4.40;3.88;;;25.10;50.70;;;;;;5015687;28;20259;-81
2023/07/11 03:33:22;;;;;;;4.30;3.90;;;25.20;50.60;;;;;;5015521;28;20208;-81
2023/07/11 03:35:50;;;;;;;4.38;4.03;;;25.20;50.50;;;;;;5015304;28;20651;-81
2023/07/11 03:38:17;;;;;;;4.47;3.90;;;25.20;50.50;;;;;;5015265;28;20192;-81
2023/07/11 03:40:45;;;;;;;4.82;4.43;;;25.20;50.40;;;;;;4999874;28;20204;-81
2023/07/11 03:43:13;;;;;;;4.50;4.10;;;25.20;50.30;;;;;;5030693;28;20188;-81
2023/07/11 03:45:42;;;;;;;4.95;4.15;;;25.20;50.20;;;;;;5027861;28;20266;-81
2023/07/11 03:48:09;;;;;;;4.55;4.15;;;25.20;50.10;;;;;;5022729;28;20274;-81
2023/07/11 03:50:36;;;;;;;4.68;3.97;;;25.30;50.00;;;;;;5004602;28;20197;-81
2023/07/11 03:53:03;;;;;;;4.80;4.00;;;25.30;50.00;;;;;;5022071;28;20215;-81
2023/07/11 03:55:30;;;;;;;4.50;4.10;;;25.20;50.00;;;;;;5023245;28;20231;-81
2023/07/11 03:57:58;;;;;;;3.97;3.67;;;25.30;50.10;;;;;;5022706;28;20267;-81
2023/07/11 04:00:25;;;;;;;4.22;3.83;;;25.20;50.10;;;;;;5022626;28;20224;-81
2023/07/11 04:02:52;;;;;;;4.40;4.00;;;25.30;50.10;;;;;;5022868;28;20220;-81
2023/07/11 04:05:19;;;;;;;5.63;4.20;;;25.30;50.00;;;;;;5022489;28;20221;-81
2023/07/11 04:07:47;;;;;;;4.45;4.00;;;25.30;50.00;;;;;;5022707;28;20282;-80
2023/07/11 04:10:13;;;;;;;4.40;3.80;;;25.30;49.90;;;;;;5023634;28;20275;-81
2023/07/11 04:12:40;;;;;;;4.70;4.18;;;25.30;49.90;;;;;;5022557;28;20208;-81
2023/07/11 04:15:10;;;;;;;4.30;3.90;;;25.30;50.00;;;;;;5004905;28;20203;-81
2023/07/11 04:17:37;;;;;;;5.13;4.03;;;25.30;49.90;;;;;;5005560;28;20200;-81
2023/07/11 04:20:05;;;;;;;5.03;4.10;;;25.30;50.00;;;;;;5020875;28;20216;-81
2023/07/11 04:22:32;;;;;;;4.68;4.25;;;25.30;50.00;;;;;;5021014;28;20272;-80
2023/07/11 04:24:59;;;;;;;4.43;4.10;;;25.40;50.00;;;;;;5020597;28;20196;-80
2023/07/11 04:27:26;;;;;;;5.35;4.50;;;25.40;50.00;;;;;;5020487;28;20216;-80
2023/07/11 04:29:53;;;;;;;5.82;4.55;;;25.40;50.60;;;;;;4985918;28;20227;-80
2023/07/11 04:32:22;;;;;;;4.50;4.10;;;25.40;50.00;;;;;;5015192;28;20204;-80
2023/07/11 04:34:50;;;;;;;4.50;4.10;;;25.40;50.10;;;;;;5014776;28;20626;-80
2023/07/11 04:37:17;;;;;;;4.90;3.92;;;25.40;50.00;;;;;;5014627;28;20224;-80
2023/07/11 04:39:44;;;;;;;4.47;4.07;;;25.40;50.00;;;;;;5014286;28;20308;-80
2023/07/11 04:42:11;;;;;;;5.22;4.15;;;25.40;50.00;;;;;;5014402;28;20201;-80
2023/07/11 04:44:39;;;;;;;5.32;3.80;;;25.40;50.10;;;;;;5014451;28;20704;-80
2023/07/11 04:47:06;;;;;;;4.60;4.20;;;25.50;50.10;;;;;;5014454;28;20220;-80
2023/07/11 04:49:34;;;;;;;5.05;4.18;;;25.50;50.10;;;;;;5014926;28;20217;-80
2023/07/11 04:52:02;;;;;;;4.80;4.25;;;25.50;50.10;;;;;;5016009;28;20276;-80
2023/07/11 04:54:28;;;;;;;4.78;4.35;;;25.60;50.10;;;;;;5014636;28;20651;-80
2023/07/11 04:56:56;;;;;;;4.80;4.40;;;25.70;50.20;;;;;;5014274;28;20236;-80
2023/07/11 04:59:23;;;;;;;4.20;3.80;;;25.80;49.90;;;;;;5014392;28;20224;-79
2023/07/11 05:01:51;;;;;;;4.47;4.07;;;25.90;49.70;;;;;;5013984;28;20204;-79
2023/07/11 05:04:18;;;;;;;4.32;3.92;;;26.00;49.40;;;;;;5014161;28;20647;-78
2023/07/11 05:06:48;;;;;;;4.93;4.43;;;26.10;49.20;;;;;;4997996;28;20197;-79
2023/07/11 05:09:15;;;;;;;4.50;4.15;;;26.20;49.10;;;;;;5016289;28;20282;-78
2023/07/11 05:11:43;;;;;;;5.57;4.60;;;26.30;49.00;;;;;;5015918;28;20196;-78
2023/07/11 05:14:10;;;;;;;5.25;4.75;;;26.30;50.00;;;;;;5014396;28;20197;-79
2023/07/11 05:16:37;;;;;;;4.60;4.20;;;26.20;50.50;;;;;;5014733;28;20204;-79
2023/07/11 05:19:04;;;;;;;5.35;4.47;;;26.10;51.20;;;;;;5014744;28;20216;-79
2023/07/11 05:21:31;;;;;;;7.07;4.90;;;26.00;51.60;;;;;;5014537;28;20567;-79
2023/07/11 05:24:01;;;;;;;5.20;4.70;;;25.80;52.00;;;;;;5015054;28;20596;-79
2023/07/11 05:26:28;;;;;;;5.97;4.63;;;25.70;52.20;;;;;;5014790;28;20197;-79
2023/07/11 05:28:56;;;;;;;5.30;4.78;;;25.70;52.30;;;;;;5015238;28;20363;-79
2023/07/11 05:31:23;;;;;;;5.80;5.20;;;25.70;52.40;;;;;;5015059;28;20196;-79
2023/07/11 05:33:52;;;;;;;5.53;5.03;;;25.50;53.00;;;;;;5014908;28;20674;-79
2023/07/11 05:36:30;;;;;;;6.20;4.82;;;25.30;53.80;;;;;;5014442;28;20291;-79
2023/07/11 05:39:00;;;;;;;7.07;4.82;;;25.20;54.40;;;;;;5014286;28;20222;-79
2023/07/11 05:41:27;;;;;;;6.55;5.10;;;25.30;54.20;;;;;;5014187;28;20209;-79
2023/07/11 05:43:55;;;;;;;6.72;5.20;;;25.30;53.60;;;;;;4998091;28;20287;-79
2023/07/11 05:46:22;;;;;;;5.45;4.95;;;25.40;53.60;;;;;;5015148;28;20683;-79
2023/07/11 05:48:49;;;;;;;7.28;5.25;;;25.30;54.10;;;;;;5013734;28;20234;-79
2023/07/11 05:51:17;;;;;;;6.25;4.97;;;25.40;54.80;;;;;;5015511;28;20667;-78
2023/07/11 05:53:44;;;;;;;5.30;4.80;;;25.50;53.70;;;;;;5015149;28;20197;-79
2023/07/11 05:56:13;;;;;;;4.90;4.40;;;25.60;52.70;;;;;;5014696;28;20200;-79
2023/07/11 05:58:41;;;;;;;5.68;4.55;;;25.80;51.80;;;;;;5014140;28;20263;-79
2023/07/11 06:01:08;;;;;;;5.75;4.65;;;26.00;51.30;;;;;;5014422;28;20651;-79
2023/07/11 06:03:35;;;;;;;5.18;4.63;;;26.10;51.00;;;;;;5014631;28;20204;-79
2023/07/11 06:06:03;;;;;;;6.00;4.68;;;26.20;50.60;;;;;;4998882;28;20198;-79
2023/07/11 06:08:30;;;;;;;5.78;5.05;;;26.30;50.50;;;;;;5013882;28;20286;-79
2023/07/11 06:10:57;;;;;;;6.28;5.10;;;26.40;50.10;;;;;;5013972;28;20207;-78
2023/07/11 06:13:26;;;;;;;5.95;5.30;;;26.50;49.90;;;;;;5013858;28;20266;-78
2023/07/11 06:15:57;;;;;;;5.15;4.65;;;26.50;49.70;;;;;;5014129;28;20294;-78
2023/07/11 06:18:25;;;;;;;6.47;4.45;;;26.60;49.50;;;;;;4983165;28;20247;-78
2023/07/11 06:20:52;;;;;;;7.03;4.40;;;26.70;49.50;;;;;;4997173;28;20200;-80
2023/07/11 06:23:19;;;;;;;5.22;4.68;;;26.70;49.30;;;;;;5013548;28;20251;-80
2023/07/11 06:25:48;;;;;;;6.40;4.80;;;26.70;49.20;;;;;;5012890;28;20200;-80
2023/07/11 06:28:14;;;;;;;4.68;4.28;;;26.80;49.30;;;;;;5013948;28;20219;-81
2023/07/11 06:30:43;;;;;;;4.68;4.28;;;26.80;49.10;;;;;;5012955;28;20211;-81
2023/07/11 06:33:11;;;;;;;4.82;4.32;;;26.80;49.10;;;;;;5012923;28;20200;-81
2023/07/11 06:35:37;;;;;;;5.25;4.50;;;26.80;49.00;;;;;;5012731;28;20192;-80
2023/07/11 06:38:05;;;;;;;5.82;4.05;;;26.80;48.90;;;;;;5013867;28;20311;-80
2023/07/11 06:40:32;;;;;;;4.60;4.20;;;26.80;48.80;;;;;;5012695;28;20196;-81
2023/07/11 06:42:59;;;;;;;4.88;4.25;;;26.90;48.90;;;;;;5012686;28;20192;-81
2023/07/11 06:45:26;;;;;;;5.13;4.63;;;26.90;48.70;;;;;;5012810;28;20286;-81
2023/07/11 06:47:54;;;;;;;4.88;4.22;;;27.00;48.60;;;;;;5013126;28;20360;-81
2023/07/11 06:50:22;;;;;;;4.80;4.30;;;27.10;48.30;;;;;;5012513;28;20285;-81
2023/07/11 06:52:48;;;;;;;4.93;4.43;;;27.30;48.00;;;;;;5012915;28;20250;-81
2023/07/11 06:55:16;;;;;;;5.32;4.50;;;27.50;47.60;;;;;;5013248;28;20208;-81
2023/07/11 06:57:43;;;;;;;4.60;4.20;;;27.60;47.20;;;;;;4996323;28;20576;-80
2023/07/11 07:00:12;;;;;;;4.53;4.03;;;27.80;46.90;;;;;;5012410;28;20251;-81
2023/07/11 07:02:40;;;;;;;4.63;4.22;;;27.90;46.70;;;;;;5012712;28;20200;-81
2023/07/11 07:05:09;;;;;;;4.53;4.13;;;28.00;46.40;;;;;;5012218;28;20685;-81
2023/07/11 07:07:35;;;;;;;4.55;4.05;;;28.10;46.30;;;;;;5012692;28;20220;-81
2023/07/11 07:10:03;;;;;;;4.78;4.38;;;28.20;46.10;;;;;;5012580;28;20307;-81
2023/07/11 07:12:30;;;;;;;5.78;4.43;;;28.20;46.00;;;;;;5012601;28;20647;-81
2023/07/11 07:14:57;;;;;;;5.15;4.18;;;28.20;46.00;;;;;;5012653;28;20292;-81
2023/07/11 07:17:24;;;;;;;4.63;4.15;;;28.20;46.00;;;;;;5012433;28;20595;-81
2023/07/11 07:19:51;;;;;;;6.00;4.30;;;28.20;46.00;;;;;;5012557;28;20299;-81
2023/07/11 07:22:19;;;;;;;4.55;4.15;;;28.20;45.80;;;;;;5012477;28;20203;-81
2023/07/11 07:24:46;;;;;;;4.22;3.83;;;28.30;45.70;;;;;;5012361;28;20188;-81
2023/07/11 07:27:13;;;;;;;4.60;3.90;;;28.40;45.60;;;;;;5016597;28;20222;-81
2023/07/11 07:29:40;;;;;;;4.13;3.72;;;28.40;45.40;;;;;;5015992;28;20324;-81
2023/07/11 07:32:07;;;;;;;4.35;3.95;;;28.50;45.30;;;;;;5015693;28;20208;-81
2023/07/11 07:34:34;;;;;;;5.03;4.32;;;28.60;45.10;;;;;;5015934;28;20211;-81
2023/07/11 07:37:02;;;;;;;4.40;4.00;;;28.70;44.90;;;;;;5015575;28;20655;-81
2023/07/11 07:39:30;;;;;;;5.03;4.00;;;28.80;45.30;;;;;;5000126;28;20762;-80
2023/07/11 07:41:57;;;;;;;7.38;4.05;;;28.90;44.50;;;;;;5015982;28;20571;-81
2023/07/11 07:44:24;;;;;;;4.50;4.10;;;29.00;44.30;;;;;;5015745;28;20204;-81
2023/07/11 07:46:51;;;;;;;5.03;4.30;;;29.10;44.00;;;;;;4999632;28;20203;-81
2023/07/11 07:49:19;;;;;;;5.75;4.18;;;29.10;43.90;;;;;;5015721;28;20224;-81
2023/07/11 07:51:46;;;;;;;5.70;4.55;;;29.20;43.80;;;;;;4999309;28;20200;-81
2023/07/11 07:54:13;;;;;;;4.38;3.97;;;29.20;43.60;;;;;;4998979;28;20654;-81
2023/07/11 07:56:42;;;;;;;4.35;3.95;;;29.30;43.60;;;;;;5015960;28;20614;-81
2023/07/11 07:59:09;;;;;;;4.25;3.88;;;29.30;43.40;;;;;;4999022;28;20247;-81
2023/07/11 08:01:36;;;;;;;4.30;3.90;;;29.40;43.30;;;;;;5015114;28;20203;-81
2023/07/11 08:04:03;;;;;;;4.45;4.05;;;29.40;43.30;;;;;;5015022;28;20197;-81
2023/07/11 08:06:30;;;;;;;4.28;3.88;;;29.50;43.20;;;;;;5015038;28;20681;-81
2023/07/11 08:08:58;;;;;;;4.38;3.97;;;29.50;43.00;;;;;;5014728;28;20224;-81
2023/07/11 08:11:25;;;;;;;4.32;3.92;;;29.60;43.00;;;;;;5014991;28;20200;-81
2023/07/11 08:13:54;;;;;;;4.35;4.00;;;29.60;42.90;;;;;;5014963;28;20203;-81
2023/07/11 08:16:20;;;;;;;4.15;3.75;;;29.70;42.80;;;;;;5014690;28;20682;-81
2023/07/11 08:18:47;;;;;;;4.13;3.83;;;29.70;42.70;;;;;;5014666;28;20220;-81
2023/07/11 08:21:14;;;;;;;4.10;3.72;;;29.70;42.50;;;;;;5014571;28;20200;-81
2023/07/11 08:23:41;;;;;;;3.85;3.45;;;29.70;42.50;;;;;;5014471;28;20251;-81
2023/07/11 08:26:10;;;;;;;4.22;3.92;;;29.80;42.50;;;;;;5014360;28;20200;-81
2023/07/11 08:28:37;;;;;;;4.38;3.97;;;29.80;42.40;;;;;;5015900;28;20250;-80
2023/07/11 08:31:05;;;;;;;4.30;3.97;;;29.90;42.30;;;;;;5014370;28;20216;-80
2023/07/11 08:33:32;;;;;;;4.30;3.90;;;29.90;42.30;;;;;;5014371;28;20208;-80
2023/07/11 08:35:59;;;;;;;3.80;3.47;;;29.90;42.30;;;;;;5014026;28;20202;-80
2023/07/11 08:38:26;;;;;;;3.92;3.53;;;30.00;42.30;;;;;;5014632;28;20224;-80
2023/07/11 08:40:53;;;;;;;3.63;3.33;;;30.00;42.20;;;;;;5014509;28;20207;-80
2023/07/11 08:43:23;;;;;;;4.47;4.07;;;30.00;42.20;;;;;;5014360;28;20204;-80
2023/07/11 08:45:53;;;;;;;4.18;3.78;;;30.00;42.10;;;;;;5014178;28;20200;-80
2023/07/11 08:48:24;;;;;;;3.88;3.47;;;30.10;42.10;;;;;;5014025;28;20306;-80
2023/07/11 08:50:58;;;;;;;4.05;3.65;;;30.10;42.00;;;;;;5014195;28;20200;-81
2023/07/11 08:53:27;;;;;;;4.15;3.78;;;30.10;41.90;;;;;;5014270;28;20201;-81
2023/07/11 08:55:55;;;;;;;4.05;3.65;;;30.20;42.00;;;;;;5014508;28;20203;-81
2023/07/11 08:58:25;;;;;;;3.65;3.35;;;30.20;42.00;;;;;;5013895;28;20192;-80
2023/07/11 09:00:52;;;;;;;4.30;3.63;;;30.20;41.90;;;;;;5014123;28;20228;-80
2023/07/11 09:03:26;;;;;;;4.43;3.80;;;30.20;41.80;;;;;;5014171;28;20563;-80
2023/07/11 09:05:55;;;;;;;3.90;3.60;;;30.20;41.80;;;;;;5014342;28;20199;-81
2023/07/11 09:08:22;;;;;;;3.90;3.60;;;30.30;41.70;;;;;;5014026;28;20231;-81
2023/07/11 09:10:54;;;;;;;3.63;3.33;;;30.20;41.60;;;;;;5013954;28;20211;-81
2023/07/11 09:13:31;;;;;;;3.88;3.58;;;30.30;41.60;;;;;;5014019;28;20669;-81
2023/07/11 09:16:01;;;;;;;3.90;3.60;;;30.30;41.60;;;;;;5014377;28;20266;-81
2023/07/11 09:18:39;;;;;;;3.72;3.42;;;30.30;41.50;;;;;;5013641;28;20224;-81
2023/07/11 09:21:09;;;;;;;4.03;3.72;;;30.30;41.50;;;;;;4997337;28;20204;-81
2023/07/11 09:23:41;;;;;;;3.70;3.40;;;30.30;41.50;;;;;;5013493;28;20200;-81
2023/07/11 09:26:11;;;;;;;4.32;3.45;;;30.40;41.60;;;;;;5013406;28;20200;-81
2023/07/11 09:28:38;;;;;;;3.92;3.50;;;30.40;41.60;;;;;;5014653;28;20216;-81
2023/07/11 09:31:07;;;;;;;4.07;3.70;;;30.40;41.60;;;;;;5013552;28;20250;-81
2023/07/11 09:33:38;;;;;;;4.18;3.88;;;30.40;41.60;;;;;;5013380;28;20611;-81
2023/07/11 09:36:13;;;;;;;3.67;3.38;;;30.40;41.50;;;;;;5013394;28;20604;-81
2023/07/11 09:38:42;;;;;;;3.58;3.28;;;30.40;41.50;;;;;;5013101;28;20223;-81
2023/07/11 09:41:14;;;;;;;3.65;3.35;;;30.40;41.40;;;;;;5014061;28;20274;-81
2023/07/11 09:43:41;;;;;;;4.03;3.60;;;30.40;41.50;;;;;;5013296;28;20207;-81
2023/07/11 09:46:11;;;;;;;3.80;3.50;;;30.40;41.40;;;;;;5014436;28;20222;-81
2023/07/11 09:48:40;;;;;;;3.70;3.40;;;30.40;41.40;;;;;;5012238;28;20235;-81
2023/07/11 09:51:15;;;;;;;3.42;3.13;;;30.50;41.50;;;;;;5013117;28;20275;-81
2023/07/11 09:53:42;;;;;;;4.10;3.70;;;30.40;41.40;;;;;;5013171;28;20192;-81
2023/07/11 09:56:11;;;;;;;3.80;3.50;;;30.40;41.50;;;;;;5014303;28;20196;-82
2023/07/11 09:58:37;;;;;;;4.05;3.75;;;30.40;41.50;;;;;;5013145;28;20223;-81
2023/07/11 10:01:06;;;;;;;3.70;3.40;;;30.40;41.50;;;;;;5012978;28;20200;-80
2023/07/11 10:03:34;;;;;;;4.00;3.70;;;30.40;41.60;;;;;;5013157;28;20203;-81
2023/07/11 10:06:03;;;;;;;4.00;3.70;;;30.40;41.60;;;;;;5014290;28;20184;-81
2023/07/11 10:08:35;;;;;;;4.22;3.83;;;30.40;41.60;;;;;;5044497;23;20238;-82
2023/07/11 10:11:03;;;;;;;3.80;3.50;;;30.40;41.60;;;;;;4999769;28;20200;-82
2023/07/11 10:13:30;;;;;;;4.10;3.70;;;30.40;41.70;;;;;;5000084;28;20589;-83
2023/07/11 10:15:58;;;;;;;3.75;3.45;;;30.30;41.70;;;;;;4998339;28;20203;-82
2023/07/11 10:18:28;;;;;;;3.75;3.45;;;30.30;41.80;;;;;;4998241;28;20200;-82
2023/07/11 10:20:57;;;;;;;3.53;3.22;;;30.30;41.90;;;;;;4998719;28;20200;-82
2023/07/11 10:23:26;;;;;;;4.18;3.80;;;30.30;41.90;;;;;;4997909;28;20568;-82
2023/07/11 10:25:53;;;;;;;4.22;3.38;;;30.20;42.00;;;;;;4998378;28;20196;-82
2023/07/11 10:28:27;;;;;;;3.72;3.42;;;30.20;42.10;;;;;;4996717;28;20686;-82
2023/07/11 10:30:55;;;;;;;3.90;3.60;;;30.10;42.20;;;;;;4997252;28;20230;-82
2023/07/11 10:33:23;;;;;;;3.90;3.60;;;30.00;42.30;;;;;;4985852;28;20196;-82
2023/07/11 10:35:52;;;;;;;3.88;3.58;;;30.00;42.50;;;;;;5002096;28;20222;-82
2023/07/11 10:38:22;;;;;;;3.75;3.45;;;30.00;42.70;;;;;;4999063;28;20232;-82
2023/07/11 10:40:52;;;;;;;3.83;3.53;;;29.90;42.70;;;;;;5000249;28;20210;-82
2023/07/11 10:43:22;;;;;;;3.90;3.60;;;29.90;42.80;;;;;;4984845;28;20210;-82
2023/07/11 10:45:50;;;;;;;3.65;3.35;;;29.90;42.90;;;;;;5019656;28;20639;-82
2023/07/11 10:48:24;;;;;;;3.72;3.42;;;29.80;42.90;;;;;;5001619;28;20333;-81
2023/07/11 10:50:53;;;;;;;3.92;3.63;;;29.80;43.00;;;;;;5001943;28;20196;-82
2023/07/11 10:53:23;;;;;;;3.95;3.65;;;29.80;43.10;;;;;;5001919;28;20567;-82
2023/07/11 10:55:54;;;;;;;3.60;3.30;;;29.70;43.10;;;;;;5002111;28;20200;-82
2023/07/11 10:58:23;;;;;;;3.97;3.55;;;29.70;43.20;;;;;;5002051;28;20250;-82
2023/07/11 11:00:56;;;;;;;3.97;3.60;;;29.70;43.30;;;;;;5004562;28;20255;-82
2023/07/11 11:03:34;;;;;;;3.72;3.42;;;29.70;43.50;;;;;;5005332;28;20200;-82
2023/07/11 11:06:05;;;;;;;3.70;3.40;;;29.60;43.50;;;;;;5005637;28;20200;-82
2023/07/11 11:08:36;;;;;;;3.20;3.00;;;29.60;43.50;;;;;;5004931;28;20616;-82
2023/07/11 11:11:08;;;;;;;3.80;3.50;;;29.60;43.50;;;;;;5005141;28;20663;-83
2023/07/11 11:13:37;;;;;;;3.60;3.30;;;29.50;43.60;;;;;;5004938;28;20206;-83
2023/07/11 11:16:08;;;;;;;4.10;3.70;;;29.50;43.60;;;;;;5005118;28;20240;-82
2023/07/11 11:18:49;;;;;;;3.97;3.67;;;29.50;43.70;;;;;;5004770;28;20227;-82
2023/07/11 11:21:19;;;;;;;4.15;3.75;;;29.50;43.80;;;;;;5008443;28;20195;-82
2023/07/11 11:24:06;;;;;;;3.70;3.40;;;29.50;43.90;;;;;;5004852;28;20200;-82
2023/07/11 11:26:37;;;;;;;3.78;3.47;;;29.50;44.00;;;;;;5012040;28;20176;-83
2023/07/11 11:29:08;;;;;;;3.60;3.30;;;29.50;44.00;;;;;;5041850;28;20192;-83
2023/07/11 11:31:37;;;;;;;3.40;3.10;;;29.50;44.00;;;;;;5024278;28;20188;-84
2023/07/11 11:34:14;;;;;;;3.28;3.08;;;29.40;44.00;;;;;;5003272;28;20200;-83
2023/07/11 11:36:48;;;;;;;3.83;3.53;;;29.40;44.10;;;;;;4988524;28;20196;-82
2023/07/11 11:39:20;;;;;;;3.55;3.25;;;29.40;44.20;;;;;;5004416;28;20637;-82
2023/07/11 11:41:57;;;;;;;3.70;3.40;;;29.40;44.20;;;;;;5003722;28;20188;-83
2023/07/11 11:44:37;;;;;;;3.33;3.10;;;29.40;44.30;;;;;;5002863;28;20627;-82
2023/07/11 11:47:04;;;;;;;3.70;3.40;;;29.40;44.30;;;;;;5002570;28;20188;-82
2023/07/11 11:49:32;;;;;;;3.50;3.20;;;29.40;44.30;;;;;;5001554;28;20220;-82
2023/07/11 11:51:58;;;;;;;3.63;3.33;;;29.40;44.30;;;;;;4984933;28;20200;-82
2023/07/11 11:54:26;;;;;;;3.90;3.60;;;29.40;44.40;;;;;;4999698;28;20678;-82
2023/07/11 11:56:56;;;;;;;3.70;3.40;;;29.40;44.40;;;;;;5004940;28;20682;-83
2023/07/11 11:59:25;;;;;;;3.55;3.25;;;29.30;44.40;;;;;;5003877;28;20215;-82
2023/07/11 12:01:59;;;;;;;3.60;3.30;;;29.30;44.40;;;;;;5000466;28;20200;-82
2023/07/11 12:04:34;;;;;;;3.65;3.35;;;29.30;44.50;;;;;;5002148;28;20219;-82
2023/07/11 12:07:05;;;;;;;3.65;3.35;;;29.30;44.60;;;;;;5002605;28;20202;-82
2023/07/11 12:09:39;;;;;;;3.70;3.40;;;29.30;44.60;;;;;;5002258;28;20298;-83
2023/07/11 12:12:09;;;;;;;3.45;3.25;;;29.30;44.60;;;;;;5002674;28;20234;-82
2023/07/11 12:14:36;;;;;;;3.67;3.30;;;29.30;45.00;;;;;;5003255;28;20262;-83
2023/07/11 12:17:04;;;;;;;3.50;3.20;;;29.20;44.70;;;;;;5003154;28;20232;-82
2023/07/11 12:19:33;;;;;;;3.63;3.33;;;29.30;44.80;;;;;;5004218;28;20757;-83
2023/07/11 12:22:04;;;;;;;3.80;3.50;;;29.20;44.80;;;;;;5002910;28;20231;-83
2023/07/11 12:24:43;;;;;;;3.70;3.40;;;29.20;44.80;;;;;;5004281;28;20192;-82
2023/07/11 12:27:41;;;;;;;3.55;3.25;;;29.20;44.80;;;;;;5003258;28;20207;-83
2023/07/11 12:30:37;;;;;;;3.80;3.50;;;29.20;44.80;;;;;;4978320;28;20725;-83
2023/07/11 12:33:24;;;;;;;3.75;3.20;;;29.20;44.80;;;;;;5004195;28;20262;-82
2023/07/11 12:35:57;;;;;;;3.67;3.38;;;29.20;44.80;;;;;;5004276;28;20291;-83
2023/07/11 12:38:29;;;;;;;3.88;3.58;;;29.30;44.90;;;;;;5003202;28;20211;-83
2023/07/11 12:41:07;;;;;;;3.60;3.30;;;29.20;44.80;;;;;;5003977;28;20184;-83
2023/07/11 12:43:35;;;;;;;3.92;3.63;;;29.20;44.80;;;;;;5003558;28;20192;-83
2023/07/11 12:46:08;;;;;;;3.55;3.28;;;29.30;44.90;;;;;;5004230;28;20604;-82
2023/07/11 12:48:37;;;;;;;3.85;3.55;;;29.20;44.90;;;;;;5003021;28;20215;-82
2023/07/11 12:51:05;;;;;;;3.72;3.42;;;29.20;44.90;;;;;;5002842;28;20306;-82
2023/07/11 12:53:34;;;;;;;3.90;3.60;;;29.20;44.90;;;;;;5003031;28;20192;-82
2023/07/11 12:56:01;;;;;;;4.05;3.75;;;29.20;44.90;;;;;;5002920;28;20196;-82